Time;durP1;ratioP1;P1;durP2;ratioP2;P2;SDS_P1;SDS_P2;PMS_P1;PMS_P2;Temp;Humidity;BMP_temperature;BMP_pressure;BME280_temperature;BME280_humidity;BME280_pressure;Samples;Min_cycle;Max_cycle;Signal;HPM_P1;HPM_P2
2021/04/04 00:00:32;;;;;;;1.30;1.20;;;14.80;57.70;;;;;;5124900;28;20027;-35
2021/04/04 00:02:58;;;;;;;1.23;1.10;;;14.80;57.80;;;;;;5143687;27;20046;-35
2021/04/04 00:05:24;;;;;;;1.38;1.27;;;14.80;57.60;;;;;;5143079;27;20029;-35
2021/04/04 00:07:51;;;;;;;1.48;1.25;;;14.80;57.50;;;;;;5145222;27;20052;-35
2021/04/04 00:10:18;;;;;;;1.65;1.15;;;14.70;57.30;;;;;;5144821;27;20078;-35
2021/04/04 00:12:45;;;;;;;1.40;1.30;;;14.70;57.30;;;;;;5145336;27;20037;-35
2021/04/04 00:15:13;;;;;;;1.30;1.20;;;14.70;57.20;;;;;;5144990;27;20022;-35
2021/04/04 00:17:39;;;;;;;1.25;1.10;;;14.70;57.40;;;;;;5124439;27;20109;-35
2021/04/04 00:20:10;;;;;;;1.52;1.23;;;14.70;57.40;;;;;;5124068;28;20023;-35
2021/04/04 00:22:36;;;;;;;1.85;1.38;;;14.70;57.40;;;;;;5117827;28;20063;-35
2021/04/04 00:25:05;;;;;;;1.52;1.13;;;14.70;57.50;;;;;;5103801;28;20024;-35
2021/04/04 00:27:31;;;;;;;1.40;1.30;;;14.70;57.50;;;;;;5108929;27;20023;-35
2021/04/04 00:29:57;;;;;;;1.25;1.08;;;14.60;57.50;;;;;;5103989;28;20039;-35
2021/04/04 00:32:23;;;;;;;1.58;1.27;;;14.70;57.60;;;;;;5119105;27;20081;-35
2021/04/04 00:34:50;;;;;;;2.13;1.23;;;14.70;57.60;;;;;;5124149;28;20091;-35
2021/04/04 00:37:16;;;;;;;1.70;1.30;;;14.60;57.80;;;;;;5124009;28;20119;-35
2021/04/04 00:39:42;;;;;;;1.85;1.45;;;14.60;57.60;;;;;;5123482;28;20049;-35
2021/04/04 00:42:08;;;;;;;1.60;1.50;;;14.60;57.60;;;;;;5124078;28;20038;-35
2021/04/04 00:44:34;;;;;;;1.63;1.38;;;14.60;57.60;;;;;;5123761;28;20035;-35
2021/04/04 00:47:00;;;;;;;1.83;1.45;;;14.60;57.40;;;;;;5123706;28;20028;-35
2021/04/04 00:49:27;;;;;;;1.77;1.30;;;14.60;57.40;;;;;;5123952;28;20027;-35
2021/04/04 00:51:53;;;;;;;1.60;1.20;;;14.60;57.30;;;;;;5123347;28;20031;-35
2021/04/04 00:54:19;;;;;;;1.45;1.27;;;14.60;57.30;;;;;;5103368;28;20036;-35
2021/04/04 00:56:45;;;;;;;1.55;1.45;;;14.60;57.40;;;;;;5103043;28;20058;-34
2021/04/04 00:59:12;;;;;;;1.52;1.20;;;14.60;57.40;;;;;;5105842;28;20114;-35
2021/04/04 01:01:38;;;;;;;2.05;1.50;;;14.60;57.30;;;;;;5131336;27;20027;-35
2021/04/04 01:04:05;;;;;;;1.52;1.30;;;14.60;57.30;;;;;;5144262;27;20398;-35
2021/04/04 01:06:31;;;;;;;1.73;1.27;;;14.60;57.20;;;;;;5143967;27;20052;-35
2021/04/04 01:08:57;;;;;;;1.77;1.27;;;14.50;57.30;;;;;;5144088;27;20055;-35
2021/04/04 01:11:41;;;;;;;1.85;1.13;;;14.50;57.30;;;;;;5143993;27;20023;-35
2021/04/04 01:14:38;;;;;;;1.52;1.20;;;14.50;57.30;;;;;;5112435;28;20110;-35
2021/04/04 01:17:04;;;;;;;2.03;1.30;;;14.50;57.30;;;;;;5085347;28;20043;-36
2021/04/04 01:19:43;;;;;;;2.03;1.55;;;14.50;57.20;;;;;;5085345;28;20502;-35
2021/04/04 01:22:19;;;;;;;1.77;1.50;;;14.50;57.40;;;;;;5088349;28;20059;-35
2021/04/04 01:25:35;;;;;;;1.90;1.30;;;14.40;57.30;;;;;;5123435;28;20095;-35
2021/04/04 01:28:03;;;;;;;2.25;1.30;;;14.40;57.50;;;;;;5100453;28;20032;-35
2021/04/04 01:30:34;;;;;;;3.75;1.40;;;14.40;57.40;;;;;;5123501;28;20381;-35
2021/04/04 01:33:00;;;;;;;1.65;1.40;;;14.40;57.40;;;;;;5124442;28;20026;-35
2021/04/04 01:35:27;;;;;;;1.70;1.50;;;14.40;57.40;;;;;;5124325;28;20015;-34
2021/04/04 01:37:55;;;;;;;2.60;1.58;;;14.40;57.40;;;;;;5090500;28;20073;-34
2021/04/04 01:40:22;;;;;;;2.55;1.23;;;14.40;57.50;;;;;;5104806;28;20028;-35
2021/04/04 01:42:48;;;;;;;1.90;1.50;;;14.40;57.50;;;;;;5105261;28;20080;-35
2021/04/04 01:45:15;;;;;;;2.75;1.40;;;14.30;57.40;;;;;;5105217;28;20047;-35
2021/04/04 01:47:41;;;;;;;1.83;1.33;;;14.30;57.50;;;;;;5104754;28;20476;-35
2021/04/04 01:50:08;;;;;;;1.80;1.38;;;14.30;57.50;;;;;;5088311;28;20088;-35
2021/04/04 01:52:34;;;;;;;1.30;1.20;;;14.30;57.50;;;;;;5090908;28;20020;-35
2021/04/04 01:55:00;;;;;;;1.57;1.47;;;14.30;57.50;;;;;;5108677;28;20027;-35
2021/04/04 01:57:28;;;;;;;1.70;1.35;;;14.30;57.60;;;;;;5108670;28;20023;-35
2021/04/04 01:59:54;;;;;;;1.60;1.33;;;14.30;57.60;;;;;;5108927;28;20030;-35
2021/04/04 02:02:20;;;;;;;2.00;1.60;;;14.30;57.60;;;;;;5122161;27;20034;-35
2021/04/04 02:04:46;;;;;;;1.70;1.45;;;14.30;57.60;;;;;;5129274;27;20711;-35
2021/04/04 02:07:15;;;;;;;1.77;1.48;;;14.20;57.60;;;;;;5122255;28;20019;-35
2021/04/04 02:09:41;;;;;;;2.53;1.38;;;14.20;57.60;;;;;;5126737;28;20043;-35
2021/04/04 02:12:07;;;;;;;1.85;1.60;;;14.20;57.60;;;;;;5108651;28;20035;-35
2021/04/04 02:14:33;;;;;;;1.35;1.25;;;14.20;57.70;;;;;;5108737;28;20272;-35
2021/04/04 02:16:59;;;;;;;1.80;1.50;;;14.20;57.80;;;;;;5091358;28;20038;-35
2021/04/04 02:19:26;;;;;;;2.40;1.90;;;14.20;57.80;;;;;;5091101;28;20041;-34
2021/04/04 02:21:53;;;;;;;1.73;1.60;;;14.20;57.80;;;;;;5108122;28;20114;-35
2021/04/04 02:24:20;;;;;;;2.05;1.63;;;14.10;57.90;;;;;;5104608;28;20040;-35
2021/04/04 02:26:47;;;;;;;2.65;1.80;;;14.10;57.90;;;;;;5105673;28;20036;-35
2021/04/04 02:29:13;;;;;;;1.73;1.53;;;14.10;57.90;;;;;;5121541;28;20050;-35
2021/04/04 02:31:45;;;;;;;3.10;1.55;;;14.10;57.90;;;;;;5136592;27;20353;-35
2021/04/04 02:34:19;;;;;;;1.98;1.50;;;14.10;58.00;;;;;;5110748;28;20046;-35
2021/04/04 02:36:45;;;;;;;2.17;1.35;;;14.10;58.00;;;;;;5126492;28;20050;-35
2021/04/04 02:39:24;;;;;;;2.42;1.55;;;14.00;58.10;;;;;;5107799;28;20039;-35
2021/04/04 02:41:50;;;;;;;1.55;1.45;;;14.00;58.20;;;;;;5108524;28;20024;-35
2021/04/04 02:44:16;;;;;;;2.03;1.63;;;14.00;58.10;;;;;;5107945;28;20023;-35
2021/04/04 02:46:48;;;;;;;1.60;1.42;;;14.00;58.20;;;;;;5116803;27;20042;-34
2021/04/04 02:49:15;;;;;;;3.13;1.63;;;14.00;58.20;;;;;;5111898;27;20019;-35
2021/04/04 02:51:42;;;;;;;3.08;1.73;;;14.00;58.30;;;;;;5111433;27;20023;-35
2021/04/04 02:54:10;;;;;;;2.33;1.50;;;13.90;58.20;;;;;;5091634;28;20073;-45
2021/04/04 02:56:38;;;;;;;;;;;13.90;58.40;;;;;;5126444;28;20027;-35
2021/04/04 02:59:04;;;;;;;2.08;1.70;;;13.90;58.40;;;;;;5141476;27;19936;-35
2021/04/04 03:01:31;;;;;;;2.50;1.50;;;13.90;58.40;;;;;;5112684;27;20019;-34
2021/04/04 03:03:57;;;;;;;1.13;1.02;;;13.90;58.50;;;;;;5127567;27;20051;-35
2021/04/04 03:06:23;;;;;;;2.22;2.00;;;13.80;58.50;;;;;;5128174;27;20023;-35
2021/04/04 03:08:52;;;;;;;2.88;1.88;;;13.80;58.60;;;;;;5127557;27;20110;-35
2021/04/04 03:11:19;;;;;;;2.75;1.85;;;13.80;58.50;;;;;;5117850;28;20032;-34
2021/04/04 03:13:49;;;;;;;2.03;1.60;;;13.80;58.60;;;;;;5107463;28;20016;-34
2021/04/04 03:16:16;;;;;;;2.20;1.60;;;13.80;58.60;;;;;;5096377;27;20043;-35
2021/04/04 03:18:43;;;;;;;2.42;1.98;;;13.80;58.60;;;;;;5127615;27;20023;-35
2021/04/04 03:21:09;;;;;;;2.72;1.92;;;13.80;58.60;;;;;;5110676;27;20059;-34
2021/04/04 03:23:36;;;;;;;2.33;1.60;;;13.80;58.60;;;;;;5112865;28;20034;-34
2021/04/04 03:26:02;;;;;;;2.17;1.57;;;13.80;58.70;;;;;;5106786;28;20024;-35
2021/04/04 03:28:28;;;;;;;2.38;1.90;;;13.70;58.70;;;;;;5109382;27;20260;-34
2021/04/04 03:30:54;;;;;;;2.60;1.95;;;13.70;58.80;;;;;;5125718;27;20024;-36
2021/04/04 03:33:21;;;;;;;2.80;2.00;;;13.70;58.80;;;;;;5110262;27;20027;-34
2021/04/04 03:35:49;;;;;;;1.83;1.60;;;13.70;58.80;;;;;;5127290;27;20035;-35
2021/04/04 03:38:16;;;;;;;1.60;1.50;;;13.70;59.00;;;;;;5145716;27;20047;-35
2021/04/04 03:40:43;;;;;;;2.38;1.70;;;13.70;58.90;;;;;;5109677;27;20051;-35
2021/04/04 03:43:15;;;;;;;2.30;1.87;;;13.60;58.90;;;;;;5127086;27;20027;-35
2021/04/04 03:45:41;;;;;;;2.35;1.60;;;13.60;58.90;;;;;;5126306;27;20015;-35
2021/04/04 03:48:07;;;;;;;2.92;1.85;;;13.60;59.00;;;;;;5106515;28;20023;-34
2021/04/04 03:50:34;;;;;;;2.72;1.92;;;13.60;58.90;;;;;;5124623;28;20034;-34
2021/04/04 03:53:01;;;;;;;3.50;2.05;;;13.60;58.90;;;;;;5089619;28;20028;-35
2021/04/04 03:55:27;;;;;;;2.20;1.85;;;13.60;58.90;;;;;;5106279;28;20024;-35
2021/04/04 03:57:53;;;;;;;2.00;1.80;;;13.60;59.00;;;;;;5106294;28;20028;-35
2021/04/04 04:00:21;;;;;;;2.33;1.90;;;13.60;59.10;;;;;;5089293;28;20020;-35
2021/04/04 04:02:48;;;;;;;2.10;1.90;;;13.50;59.10;;;;;;5106346;28;20020;-35
2021/04/04 04:05:19;;;;;;;2.88;1.98;;;13.50;59.70;;;;;;5124380;28;20024;-35
2021/04/04 04:07:45;;;;;;;2.20;2.00;;;13.50;59.10;;;;;;5090032;28;20027;-35
2021/04/04 04:10:14;;;;;;;2.35;1.80;;;13.50;59.20;;;;;;5105921;28;20054;-35
2021/04/04 04:12:40;;;;;;;3.05;2.13;;;13.50;59.20;;;;;;5106079;28;20066;-34
2021/04/04 04:15:07;;;;;;;2.60;2.00;;;13.40;59.20;;;;;;5105576;28;20051;-34
2021/04/04 04:17:33;;;;;;;1.98;1.73;;;13.40;59.30;;;;;;5122731;27;20034;-36
2021/04/04 04:20:00;;;;;;;2.65;1.85;;;13.40;59.30;;;;;;5109057;27;20020;-34
2021/04/04 04:22:26;;;;;;;3.08;2.10;;;13.40;59.90;;;;;;5121232;28;20053;-35
2021/04/04 04:24:52;;;;;;;3.70;2.28;;;13.40;59.40;;;;;;5105978;28;20035;-35
2021/04/04 04:27:18;;;;;;;2.58;2.10;;;13.40;59.40;;;;;;5135471;27;20031;-35
2021/04/04 04:29:48;;;;;;;2.47;2.00;;;13.40;59.40;;;;;;5125946;27;20109;-34
2021/04/04 04:32:23;;;;;;;2.53;1.80;;;13.40;59.50;;;;;;5114627;28;20083;-35
2021/04/04 04:34:53;;;;;;;2.60;2.22;;;13.30;59.60;;;;;;5089131;28;20077;-34
2021/04/04 04:37:19;;;;;;;1.75;1.65;;;13.30;59.60;;;;;;5089021;28;20042;-35
2021/04/04 04:39:46;;;;;;;4.80;2.00;;;13.30;59.60;;;;;;5088538;28;20033;-34
2021/04/04 04:42:15;;;;;;;3.17;2.17;;;13.30;59.70;;;;;;5088919;28;20110;-35
2021/04/04 04:44:43;;;;;;;2.10;1.90;;;13.30;59.80;;;;;;5088806;28;20011;-35
2021/04/04 04:47:10;;;;;;;2.22;1.90;;;13.30;59.70;;;;;;5101968;27;20781;-35
2021/04/04 04:49:37;;;;;;;2.28;2.08;;;13.20;59.70;;;;;;5125526;27;20038;-35
2021/04/04 04:52:03;;;;;;;3.10;2.23;;;13.20;59.80;;;;;;5142649;27;20032;-34
2021/04/04 04:54:30;;;;;;;2.72;2.00;;;13.20;59.90;;;;;;5105570;28;20072;-34
2021/04/04 04:56:56;;;;;;;2.83;2.23;;;13.20;59.80;;;;;;5123518;28;20031;-35
2021/04/04 04:59:22;;;;;;;2.63;1.90;;;13.20;60.00;;;;;;5105431;28;20047;-35
2021/04/04 05:01:48;;;;;;;2.72;2.28;;;13.10;60.10;;;;;;5115392;28;20032;-34
2021/04/04 05:04:14;;;;;;;3.13;2.03;;;13.10;60.00;;;;;;5085067;28;20040;-35
2021/04/04 05:06:45;;;;;;;2.30;2.10;;;13.10;60.10;;;;;;5085189;28;20020;-34
2021/04/04 05:09:11;;;;;;;2.60;2.20;;;13.10;60.10;;;;;;5102989;28;20040;-35
2021/04/04 05:11:44;;;;;;;2.58;2.20;;;13.10;60.30;;;;;;5086700;28;20026;-35
2021/04/04 05:14:14;;;;;;;4.78;2.40;;;13.10;60.30;;;;;;5103966;28;20062;-35
2021/04/04 05:16:40;;;;;;;2.97;2.38;;;13.00;60.30;;;;;;5132609;28;20039;-34
2021/04/04 05:19:10;;;;;;;3.05;2.30;;;13.00;60.40;;;;;;5144059;28;20027;-34
2021/04/04 05:21:38;;;;;;;2.25;2.05;;;13.00;60.50;;;;;;5125057;28;20039;-35
2021/04/04 05:24:05;;;;;;;;;;;13.00;60.70;;;;;;5125294;28;20028;-34
2021/04/04 05:26:36;;;;;;;3.17;2.42;;;13.00;60.50;;;;;;5126077;28;19913;-34
2021/04/04 05:29:03;;;;;;;2.80;2.17;;;13.00;60.60;;;;;;5109225;28;20037;-35
2021/04/04 05:31:30;;;;;;;3.22;2.63;;;12.90;60.80;;;;;;5132510;27;20019;-34
2021/04/04 05:33:56;;;;;;;3.17;2.35;;;12.90;60.80;;;;;;5133370;27;20032;-35
2021/04/04 05:36:23;;;;;;;4.07;2.28;;;12.90;60.80;;;;;;5109321;28;20193;-34
2021/04/04 05:38:54;;;;;;;3.07;2.50;;;12.90;60.80;;;;;;5127640;28;20620;-35
2021/04/04 05:41:20;;;;;;;4.00;2.50;;;12.90;60.90;;;;;;5126948;28;20271;-35
2021/04/04 05:43:51;;;;;;;3.03;2.60;;;12.90;60.90;;;;;;5109190;28;20781;-34
2021/04/04 05:46:23;;;;;;;2.70;2.38;;;12.90;60.80;;;;;;5114921;27;20019;-35
2021/04/04 05:49:16;;;;;;;3.28;2.38;;;12.80;60.90;;;;;;5147654;27;20052;-34
2021/04/04 05:51:46;;;;;;;3.65;2.63;;;12.90;60.90;;;;;;5131462;27;20027;-35
2021/04/04 05:54:34;;;;;;;3.30;2.45;;;12.80;60.90;;;;;;5109410;28;20027;-35
2021/04/04 05:57:05;;;;;;;2.92;2.58;;;12.80;60.90;;;;;;5114172;27;20023;-34
2021/04/04 05:59:34;;;;;;;2.55;2.35;;;12.80;61.00;;;;;;5127085;28;20045;-35
2021/04/04 06:02:06;;;;;;;3.95;2.75;;;12.80;61.00;;;;;;5101237;27;20081;-34
2021/04/04 06:04:45;;;;;;;5.15;2.60;;;12.80;61.10;;;;;;5128711;27;20054;-35
2021/04/04 06:07:45;;;;;;;2.95;2.42;;;12.80;61.10;;;;;;5147552;27;20029;-35
2021/04/04 06:10:26;;;;;;;2.97;2.22;;;12.70;61.10;;;;;;5147234;27;20043;-34
2021/04/04 06:13:09;;;;;;;3.15;2.58;;;12.70;61.10;;;;;;5113792;27;20023;-34
2021/04/04 06:16:01;;;;;;;3.75;2.80;;;12.70;61.20;;;;;;5112947;27;20030;-35
2021/04/04 06:18:58;;;;;;;4.63;3.00;;;12.70;61.20;;;;;;5087277;28;20044;-35
2021/04/04 06:21:33;;;;;;;3.47;2.60;;;12.70;61.20;;;;;;5108201;28;20034;-36
2021/04/04 06:24:10;;;;;;;3.58;2.33;;;12.70;61.40;;;;;;5125326;28;20384;-35
2021/04/04 06:27:02;;;;;;;2.90;2.60;;;12.60;61.30;;;;;;5108028;28;20083;-35
2021/04/04 06:29:40;;;;;;;5.28;2.67;;;12.60;61.30;;;;;;5108112;28;20044;-37
2021/04/04 06:32:17;;;;;;;3.13;2.78;;;12.60;61.40;;;;;;5119232;27;20024;-34
2021/04/04 06:34:53;;;;;;;4.55;3.38;;;12.60;61.40;;;;;;5111528;27;20050;-34
2021/04/04 06:37:26;;;;;;;3.45;2.50;;;12.60;61.40;;;;;;5090230;28;20031;-34
2021/04/04 06:40:20;;;;;;;3.70;2.42;;;12.60;61.60;;;;;;5126224;28;20027;-34
2021/04/04 06:42:58;;;;;;;2.92;2.35;;;12.60;61.50;;;;;;5126181;28;20055;-34
2021/04/04 06:46:32;;;;;;;5.07;2.47;;;12.60;61.60;;;;;;5125924;28;20102;-35
2021/04/04 06:49:14;;;;;;;3.88;2.90;;;12.50;61.50;;;;;;4983515;28;20049;-34
2021/04/04 06:51:46;;;;;;;3.33;2.70;;;12.50;61.60;;;;;;4984925;28;20035;-34
2021/04/04 06:54:49;;;;;;;3.58;2.90;;;12.50;61.70;;;;;;4983543;28;20062;-34
2021/04/04 06:57:33;;;;;;;3.20;2.58;;;12.50;61.70;;;;;;4983451;28;20055;-35
2021/04/04 07:00:13;;;;;;;3.85;2.47;;;12.40;61.80;;;;;;4983450;28;20039;-35
2021/04/04 07:03:06;;;;;;;3.85;2.80;;;12.40;61.90;;;;;;4997665;28;20054;-34
2021/04/04 07:05:56;;;;;;;4.60;2.80;;;12.40;61.80;;;;;;5002693;28;20042;-35
2021/04/04 07:08:50;;;;;;;3.50;2.75;;;12.40;61.90;;;;;;4984716;28;20058;-35
2021/04/04 07:11:32;;;;;;;3.80;2.80;;;12.40;61.90;;;;;;5002721;28;20045;-34
2021/04/04 07:14:40;;;;;;;3.85;3.00;;;12.40;61.90;;;;;;4991507;28;20103;-35
2021/04/04 07:17:42;;;;;;;4.43;3.10;;;12.40;61.90;;;;;;4987564;28;20581;-34
2021/04/04 07:20:18;;;;;;;3.40;2.90;;;12.30;61.90;;;;;;5052968;28;20033;-35
2021/04/04 07:23:21;;;;;;;3.03;2.50;;;12.30;62.00;;;;;;5054507;28;20025;-34
2021/04/04 07:26:02;;;;;;;4.00;2.70;;;12.30;62.10;;;;;;5095046;28;20059;-34
2021/04/04 07:29:06;;;;;;;6.18;3.15;;;12.30;62.10;;;;;;5125044;28;20103;-34
2021/04/04 07:31:37;;;;;;;3.90;2.78;;;12.30;62.20;;;;;;5134277;27;20091;-34
2021/04/04 07:34:12;;;;;;;3.50;2.80;;;12.30;62.10;;;;;;5110660;27;20031;-35
2021/04/04 07:36:49;;;;;;;3.95;3.03;;;12.20;62.20;;;;;;5127050;27;20041;-35
2021/04/04 07:39:38;;;;;;;3.97;3.15;;;12.20;62.30;;;;;;5145860;27;20023;-34
2021/04/04 07:42:49;;;;;;;5.18;3.13;;;12.20;62.30;;;;;;5111484;27;20064;-35
2021/04/04 07:45:21;;;;;;;3.50;3.00;;;12.20;62.20;;;;;;5127351;27;20047;-34
2021/04/04 07:48:27;;;;;;;3.97;3.00;;;12.20;62.30;;;;;;5126429;27;20092;-34
2021/04/04 07:51:08;;;;;;;3.67;2.75;;;12.20;62.30;;;;;;5124527;28;20043;-34
2021/04/04 07:53:50;;;;;;;4.38;3.17;;;12.10;62.40;;;;;;5124512;28;20031;-34
2021/04/04 07:56:20;;;;;;;4.30;3.05;;;12.10;62.50;;;;;;5129358;27;20039;-35
2021/04/04 07:59:08;;;;;;;3.55;2.88;;;12.10;62.50;;;;;;5127044;27;20062;-34
2021/04/04 08:02:14;;;;;;;5.47;2.90;;;12.10;62.50;;;;;;5139221;27;20027;-34
2021/04/04 08:04:53;;;;;;;4.07;3.15;;;12.10;62.50;;;;;;5124590;28;20263;-35
2021/04/04 08:07:20;;;;;;;4.10;3.20;;;12.10;62.50;;;;;;5124346;28;20023;-35
2021/04/04 08:09:58;;;;;;;4.50;3.40;;;12.00;62.60;;;;;;5124327;28;20595;-35
2021/04/04 08:12:34;;;;;;;4.38;2.95;;;12.00;62.60;;;;;;5124379;28;20061;-34
2021/04/04 08:15:25;;;;;;;5.00;3.35;;;12.00;62.50;;;;;;5124255;28;20539;-34
2021/04/04 08:17:51;;;;;;;4.80;3.55;;;12.00;62.60;;;;;;5126931;27;20042;-34
2021/04/04 08:20:27;;;;;;;5.35;3.53;;;12.00;62.70;;;;;;5144891;27;20544;-34
2021/04/04 08:23:08;;;;;;;4.47;3.30;;;12.00;62.70;;;;;;5117183;28;20042;-35
2021/04/04 08:25:54;;;;;;;3.70;3.00;;;12.00;62.70;;;;;;5124070;28;20031;-35
2021/04/04 08:28:42;;;;;;;4.03;3.30;;;12.00;62.70;;;;;;5123762;28;20521;-34
2021/04/04 08:31:23;;;;;;;4.50;3.17;;;11.90;62.70;;;;;;5104711;28;20023;-34
2021/04/04 08:34:15;;;;;;;4.13;3.00;;;11.90;62.80;;;;;;5124071;27;20035;-34
2021/04/04 08:36:56;;;;;;;4.65;3.10;;;11.90;62.80;;;;;;5133161;27;20050;-34
2021/04/04 08:39:24;;;;;;;4.63;3.30;;;11.90;62.80;;;;;;5110701;27;20023;-35
2021/04/04 08:41:51;;;;;;;4.25;3.20;;;11.90;62.80;;;;;;5125977;27;20440;-34
2021/04/04 08:44:28;;;;;;;4.90;2.85;;;11.90;63.00;;;;;;5109290;27;20057;-34
2021/04/04 08:47:17;;;;;;;2.70;2.47;;;11.80;62.90;;;;;;5106059;28;20043;-34
2021/04/04 08:49:44;;;;;;;4.15;3.40;;;11.80;62.90;;;;;;5102147;28;20028;-34
2021/04/04 08:52:17;;;;;;;4.17;3.17;;;11.80;63.00;;;;;;5102139;28;20035;-35
2021/04/04 08:54:52;;;;;;;5.47;3.75;;;11.80;63.10;;;;;;5103593;28;20430;-34
2021/04/04 08:57:37;;;;;;;4.45;3.72;;;11.80;63.00;;;;;;5102999;28;20028;-34
2021/04/04 09:00:08;;;;;;;4.22;3.00;;;11.80;63.10;;;;;;5102855;28;20020;-34
2021/04/04 09:02:38;;;;;;;4.05;3.20;;;11.80;63.10;;;;;;5131792;27;20038;-34
2021/04/04 09:05:05;;;;;;;4.38;3.22;;;11.80;63.20;;;;;;5144266;27;20430;-35
2021/04/04 09:07:34;;;;;;;4.05;3.22;;;11.80;63.10;;;;;;5125769;28;20022;-34
2021/04/04 09:10:01;;;;;;;4.63;3.47;;;11.70;63.00;;;;;;5125651;28;20158;-36
2021/04/04 09:12:33;;;;;;;4.55;3.22;;;11.70;63.20;;;;;;5091857;28;20023;-34
2021/04/04 09:15:07;;;;;;;4.40;3.05;;;11.70;63.10;;;;;;5135260;27;20051;-34
2021/04/04 09:17:33;;;;;;;4.70;3.10;;;11.70;63.20;;;;;;5124240;28;20040;-34
2021/04/04 09:20:03;;;;;;;4.47;3.20;;;11.70;63.10;;;;;;5088444;28;20023;-34
2021/04/04 09:22:29;;;;;;;3.85;3.08;;;11.70;63.20;;;;;;5123470;28;20024;-36
2021/04/04 09:24:59;;;;;;;3.80;3.13;;;11.70;63.20;;;;;;5107668;28;20022;-34
2021/04/04 09:27:30;;;;;;;3.45;3.05;;;11.60;63.20;;;;;;5104852;28;20070;-34
2021/04/04 09:29:57;;;;;;;4.90;3.40;;;11.60;63.30;;;;;;5105040;28;20033;-34
2021/04/04 09:32:42;;;;;;;5.60;3.70;;;11.60;63.20;;;;;;5105181;28;20065;-34
2021/04/04 09:35:13;;;;;;;4.15;3.50;;;11.60;63.30;;;;;;5105160;28;20036;-34
2021/04/04 09:37:39;;;;;;;4.75;3.53;;;11.60;63.30;;;;;;5138901;28;20032;-34
2021/04/04 09:40:06;;;;;;;3.88;2.88;;;11.60;63.40;;;;;;5104929;28;20107;-37
2021/04/04 09:42:32;;;;;;;5.10;3.50;;;11.60;63.40;;;;;;5104908;28;20024;-34
2021/04/04 09:45:24;;;;;;;6.30;3.50;;;11.60;63.40;;;;;;5105188;28;20035;-34
2021/04/04 09:47:51;;;;;;;5.35;3.50;;;11.60;63.40;;;;;;5122860;28;20024;-35
2021/04/04 09:50:23;;;;;;;;;;;11.60;63.40;;;;;;5105257;28;20028;-34
2021/04/04 09:52:50;;;;;;;3.78;3.17;;;11.50;63.40;;;;;;5114817;28;19940;-34
2021/04/04 09:55:18;;;;;;;5.70;3.78;;;11.50;63.50;;;;;;5102877;28;20024;-34
2021/04/04 09:57:59;;;;;;;4.07;3.08;;;11.50;63.60;;;;;;5125196;28;20122;-34
2021/04/04 10:00:30;;;;;;;5.03;3.63;;;11.50;63.60;;;;;;5105831;28;20083;-34
2021/04/04 10:02:57;;;;;;;5.18;3.58;;;11.50;63.60;;;;;;5140284;28;20031;-34
2021/04/04 10:05:27;;;;;;;5.05;3.38;;;11.40;63.60;;;;;;5143641;28;20422;-34
2021/04/04 10:07:54;;;;;;;4.97;3.25;;;11.40;63.60;;;;;;5143364;28;20484;-35
2021/04/04 10:10:32;;;;;;;5.03;3.78;;;11.40;63.70;;;;;;5143412;28;20054;-34
2021/04/04 10:12:59;;;;;;;4.70;3.45;;;11.40;63.70;;;;;;5145195;27;20048;-34
2021/04/04 10:15:25;;;;;;;4.38;3.53;;;11.40;64.20;;;;;;5147521;27;20387;-35
2021/04/04 10:17:58;;;;;;;3.90;3.00;;;11.40;63.80;;;;;;5130671;27;20095;-35
2021/04/04 10:20:40;;;;;;;5.38;3.40;;;11.40;63.90;;;;;;5126698;28;20098;-35
2021/04/04 10:23:07;;;;;;;5.10;3.58;;;11.40;63.80;;;;;;5126831;27;20027;-34
2021/04/04 10:25:34;;;;;;;4.78;3.70;;;11.30;63.70;;;;;;5126581;28;20066;-34
2021/04/04 10:28:03;;;;;;;5.57;3.97;;;11.30;63.80;;;;;;5109430;27;20035;-34
2021/04/04 10:30:30;;;;;;;4.13;3.60;;;11.30;63.80;;;;;;5126422;28;20260;-34
2021/04/04 10:33:16;;;;;;;4.28;3.17;;;11.30;63.90;;;;;;5126315;28;20027;-34
2021/04/04 10:35:42;;;;;;;5.95;3.90;;;11.30;63.90;;;;;;5126321;28;20828;-34
2021/04/04 10:38:10;;;;;;;4.30;3.50;;;11.30;63.90;;;;;;5126488;28;20024;-34
2021/04/04 10:40:57;;;;;;;6.10;3.67;;;11.30;63.90;;;;;;5126213;28;20028;-34
2021/04/04 10:43:45;;;;;;;4.45;3.05;;;11.30;63.90;;;;;;5126286;28;20077;-34
2021/04/04 10:46:15;;;;;;;4.03;3.38;;;11.20;63.90;;;;;;5128422;27;20027;-34
2021/04/04 10:48:45;;;;;;;6.35;4.13;;;11.20;63.90;;;;;;5146516;27;20036;-34
2021/04/04 10:51:14;;;;;;;6.88;3.28;;;11.20;64.00;;;;;;5146704;27;20023;-34
2021/04/04 10:53:41;;;;;;;5.45;3.40;;;11.20;64.10;;;;;;5130778;27;20099;-39
2021/04/04 10:56:07;;;;;;;5.03;3.47;;;11.20;64.00;;;;;;5125998;28;20467;-34
2021/04/04 10:58:34;;;;;;;6.18;3.58;;;11.20;64.10;;;;;;5125826;28;20019;-34
2021/04/04 11:01:01;;;;;;;4.82;3.22;;;11.20;64.10;;;;;;5127874;27;20027;-34
2021/04/04 11:03:28;;;;;;;3.95;3.05;;;11.10;64.10;;;;;;5125758;28;20028;-34
2021/04/04 11:05:54;;;;;;;4.75;3.60;;;11.10;64.20;;;;;;5125967;28;20031;-37
2021/04/04 11:08:20;;;;;;;4.47;3.15;;;11.10;64.10;;;;;;5125630;28;20019;-35
2021/04/04 11:10:47;;;;;;;4.90;3.95;;;11.10;64.20;;;;;;5125506;28;20461;-34
2021/04/04 11:13:17;;;;;;;5.35;4.20;;;11.10;64.20;;;;;;5125623;28;20062;-34
2021/04/04 11:15:59;;;;;;;5.70;3.50;;;11.10;64.30;;;;;;5107160;28;20038;-34
2021/04/04 11:18:29;;;;;;;5.63;3.55;;;11.10;64.40;;;;;;5125419;28;20401;-34
2021/04/04 11:20:57;;;;;;;5.18;3.38;;;11.00;64.30;;;;;;5125468;28;20092;-35
2021/04/04 11:23:23;;;;;;;4.00;3.47;;;11.00;64.30;;;;;;5107273;28;20031;-34
2021/04/04 11:25:49;;;;;;;4.57;3.50;;;11.00;64.30;;;;;;5107142;28;20062;-34
2021/04/04 11:28:17;;;;;;;4.47;3.38;;;11.00;64.30;;;;;;5107174;28;20036;-34
2021/04/04 11:30:44;;;;;;;4.82;3.92;;;11.00;64.30;;;;;;5128986;27;20031;-34
2021/04/04 11:33:16;;;;;;;5.20;3.95;;;11.00;64.30;;;;;;5107866;28;20043;-34
2021/04/04 11:36:11;;;;;;;5.70;3.72;;;11.00;64.30;;;;;;5125467;28;20042;-34
2021/04/04 11:38:49;;;;;;;6.22;3.70;;;11.00;64.30;;;;;;5125381;28;20128;-34
2021/04/04 11:41:27;;;;;;;5.38;4.00;;;10.90;64.40;;;;;;5124854;28;20126;-34
2021/04/04 11:44:24;;;;;;;5.85;3.67;;;10.90;64.50;;;;;;5125141;28;20030;-34
2021/04/04 11:46:54;;;;;;;6.05;3.95;;;10.90;64.50;;;;;;5124831;28;20028;-34
2021/04/04 11:49:45;;;;;;;4.65;3.65;;;10.90;64.50;;;;;;5124794;28;20024;-34
2021/04/04 11:52:11;;;;;;;5.65;4.10;;;10.90;64.50;;;;;;5103629;28;20024;-34
2021/04/04 11:54:50;;;;;;;5.57;3.58;;;10.90;64.60;;;;;;5104544;28;20664;-34
2021/04/04 11:57:32;;;;;;;5.13;3.65;;;10.90;64.60;;;;;;5104296;28;20059;-34
2021/04/04 12:00:18;;;;;;;5.18;3.58;;;10.80;64.60;;;;;;5104185;28;20023;-34
2021/04/04 12:02:59;;;;;;;5.45;3.65;;;10.80;64.70;;;;;;5124719;27;20023;-34
2021/04/04 12:05:26;;;;;;;5.32;3.42;;;10.80;64.70;;;;;;5126728;27;20028;-34
2021/04/04 12:07:57;;;;;;;4.82;3.92;;;10.80;64.70;;;;;;5126654;27;20023;-34
2021/04/04 12:10:34;;;;;;;4.72;3.42;;;10.80;64.70;;;;;;5143057;27;20055;-34
2021/04/04 12:13:00;;;;;;;6.18;4.40;;;10.80;64.70;;;;;;5118853;28;20091;-34
2021/04/04 12:15:28;;;;;;;5.05;3.67;;;10.80;64.80;;;;;;5124426;28;20020;-34
2021/04/04 12:17:58;;;;;;;5.55;3.85;;;10.80;64.80;;;;;;5124613;28;20024;-34
2021/04/04 12:20:34;;;;;;;5.65;4.20;;;10.80;64.80;;;;;;5124275;28;20024;-34
2021/04/04 12:23:01;;;;;;;4.53;3.75;;;10.80;64.70;;;;;;5124545;28;20027;-34
2021/04/04 12:25:28;;;;;;;4.55;3.30;;;10.80;64.70;;;;;;5124359;28;20016;-34
2021/04/04 12:27:55;;;;;;;;;;;10.80;64.70;;;;;;5124749;28;20038;-35
2021/04/04 12:30:36;;;;;;;5.60;3.65;;;10.70;64.70;;;;;;5123717;28;19974;-34
2021/04/04 12:33:12;;;;;;;5.35;3.70;;;10.70;64.70;;;;;;5136163;27;20053;-34
2021/04/04 12:35:43;;;;;;;6.68;4.05;;;10.70;64.80;;;;;;5144096;27;21943;-34
2021/04/04 12:38:11;;;;;;;4.95;3.67;;;10.70;64.80;;;;;;5144712;27;20053;-34
2021/04/04 12:40:37;;;;;;;4.40;4.00;;;10.70;64.80;;;;;;5125903;27;20038;-34
2021/04/04 12:43:04;;;;;;;6.00;4.50;;;10.70;64.80;;;;;;5144611;27;20027;-34
2021/04/04 12:45:33;;;;;;;5.43;3.78;;;10.70;64.80;;;;;;5144899;27;20114;-34
2021/04/04 12:48:00;;;;;;;4.97;3.80;;;10.70;64.80;;;;;;5144497;27;20034;-35
2021/04/04 12:50:26;;;;;;;;;;;10.70;64.80;;;;;;5126303;27;20023;-40
2021/04/04 12:52:53;;;;;;;5.05;3.85;;;10.70;64.80;;;;;;5135732;27;19933;-34
2021/04/04 12:55:30;;;;;;;4.97;3.83;;;10.70;64.90;;;;;;5124111;28;20028;-34
2021/04/04 12:58:17;;;;;;;5.03;3.70;;;10.70;64.80;;;;;;5123907;28;20047;-34
2021/04/04 13:00:45;;;;;;;5.88;4.00;;;10.70;64.80;;;;;;5106606;28;20320;-34
2021/04/04 13:03:16;;;;;;;5.35;3.80;;;10.70;64.80;;;;;;5144056;27;20031;-34
2021/04/04 13:05:43;;;;;;;5.70;3.70;;;10.70;64.70;;;;;;5143183;27;20023;-34
2021/04/04 13:08:28;;;;;;;5.38;3.67;;;10.70;64.70;;;;;;5144376;27;20023;-34
2021/04/04 13:10:59;;;;;;;6.13;4.10;;;10.70;64.70;;;;;;5144127;27;20035;-35
2021/04/04 13:13:26;;;;;;;5.25;3.78;;;10.70;64.80;;;;;;5125865;27;20034;-34
2021/04/04 13:15:56;;;;;;;5.50;3.92;;;10.70;64.80;;;;;;5144328;27;20038;-34